createdAt,value
2018-04-02T00:00:25.361Z,43.70
2018-04-02T00:02:53.605Z,49.97
2018-04-02T00:05:21.861Z,45.03
2018-04-02T00:07:50.107Z,50.40
2018-04-02T00:10:18.358Z,43.67
2018-04-02T00:12:46.605Z,41.20
2018-04-02T00:15:14.880Z,43.83
2018-04-02T00:17:43.189Z,54.20
2018-04-02T00:20:11.449Z,46.20
2018-04-02T00:22:39.687Z,32.33
2018-04-02T00:25:07.958Z,37.77
2018-04-02T00:27:36.216Z,43.83
2018-04-02T00:30:05.225Z,36.77
2018-04-02T00:32:33.487Z,40.83
2018-04-02T00:35:01.732Z,35.30
2018-04-02T00:37:29.990Z,31.80
2018-04-02T00:39:58.242Z,32.67
2018-04-02T00:42:26.495Z,39.70
2018-04-02T00:44:55.515Z,33.57
2018-04-02T00:47:23.774Z,33.43
2018-04-02T00:49:52.017Z,39.80
2018-04-02T00:52:20.279Z,35.97
2018-04-02T00:54:48.522Z,28.17
2018-04-02T00:57:16.778Z,29.33
2018-04-02T00:59:45.024Z,28.77
2018-04-02T01:02:13.349Z,29.60
2018-04-02T01:04:41.596Z,32.23
2018-04-02T01:07:10.622Z,29.93
2018-04-02T01:09:38.875Z,33.70
2018-04-02T01:12:07.125Z,22.43
2018-04-02T01:14:36.145Z,39.13
2018-04-02T01:17:04.403Z,30.13
2018-04-02T01:19:33.414Z,41.67
2018-04-02T01:22:01.667Z,33.73
2018-04-02T01:24:30.683Z,36.03
2018-04-02T01:26:58.938Z,36.20
2018-04-02T01:29:27.951Z,33.90
2018-04-02T01:31:56.226Z,31.10
2018-04-02T01:34:24.485Z,33.57
2018-04-02T01:36:53.504Z,35.33
2018-04-02T01:39:21.761Z,35.63
2018-04-02T01:41:50.021Z,33.53
2018-04-02T01:44:19.042Z,33.10
2018-04-02T01:46:47.294Z,32.97
2018-04-02T01:49:16.322Z,36.90
2018-04-02T01:51:44.568Z,33.00
2018-04-02T01:54:13.589Z,38.23
2018-04-02T01:56:42.770Z,38.57
2018-04-02T01:59:11.026Z,39.73
2018-04-02T02:01:40.050Z,46.33
2018-04-02T02:04:08.323Z,39.23
2018-04-02T02:06:36.565Z,39.93
2018-04-02T02:09:06.508Z,40.83
2018-04-02T02:11:34.765Z,46.53
2018-04-02T02:14:03.799Z,47.33
2018-04-02T02:16:32.061Z,53.60
2018-04-02T02:19:00.325Z,46.03
2018-04-02T02:21:28.579Z,65.25
2018-04-02T02:23:57.608Z,51.65
2018-04-02T02:26:25.861Z,64.45
2018-04-02T02:28:54.886Z,57.80
2018-04-02T02:31:23.132Z,55.80
2018-04-02T02:33:51.390Z,67.60
2018-04-02T02:36:20.406Z,60.28
2018-04-02T02:38:48.659Z,64.95
2018-04-02T02:41:17.682Z,57.33
2018-04-02T02:43:45.938Z,62.45
2018-04-02T02:46:14.963Z,63.78
2018-04-02T02:48:43.210Z,67.53
2018-04-02T02:51:12.227Z,69.43
2018-04-02T02:53:40.477Z,67.80
2018-04-02T02:56:08.755Z,69.05
2018-04-02T02:58:37.008Z,55.70
2018-04-02T03:01:06.040Z,62.80
2018-04-02T03:03:34.298Z,64.95
2018-04-02T03:06:02.562Z,59.47
2018-04-02T03:08:30.817Z,79.37
2018-04-02T03:11:00.578Z,81.60
2018-04-02T03:13:28.834Z,67.65
2018-04-02T03:15:57.122Z,70.82
2018-04-02T03:18:25.376Z,68.75
2018-04-02T03:20:54.390Z,75.05
2018-04-02T03:23:22.650Z,73.07
2018-04-02T03:25:51.675Z,64.53
2018-04-02T03:28:19.938Z,63.30
2018-04-02T03:30:48.186Z,60.42
2018-04-02T03:33:17.201Z,68.13
2018-04-02T03:35:45.453Z,55.70
2018-04-02T03:38:14.481Z,53.50
2018-04-02T03:40:42.731Z,64.97
2018-04-02T03:43:11.756Z,56.03
2018-04-02T03:45:40.007Z,64.20
2018-04-02T03:48:08.264Z,69.10
2018-04-02T03:50:37.277Z,70.43
2018-04-02T03:53:05.541Z,61.60
2018-04-02T03:55:34.550Z,53.27
2018-04-02T03:58:02.813Z,62.03
2018-04-02T04:00:31.839Z,67.12
2018-04-02T04:03:00.101Z,53.40
2018-04-02T04:05:28.384Z,57.40
2018-04-02T04:07:56.646Z,61.85
2018-04-02T04:10:24.894Z,63.20
2018-04-02T04:12:53.914Z,63.40
2018-04-02T04:15:22.179Z,56.53
2018-04-02T04:17:51.199Z,74.68
2018-04-02T04:20:19.453Z,60.70
2018-04-02T04:22:47.711Z,61.58
2018-04-02T04:25:15.963Z,65.00
2018-04-02T04:27:44.213Z,48.55
2018-04-02T04:30:12.479Z,56.22
2018-04-02T04:32:40.729Z,68.40
2018-04-02T04:35:09.753Z,59.72
2018-04-02T04:37:38.005Z,66.62
2018-04-02T04:40:06.261Z,80.40
2018-04-02T04:42:35.287Z,78.37
2018-04-02T04:45:03.538Z,74.03
2018-04-02T04:47:31.782Z,67.57
2018-04-02T04:50:00.047Z,73.22
2018-04-02T04:52:28.294Z,67.57
2018-04-02T04:54:56.565Z,72.25
2018-04-02T04:57:24.822Z,55.20
2018-04-02T04:59:53.078Z,73.22
2018-04-02T05:02:22.103Z,52.17
2018-04-02T05:04:50.357Z,60.17
2018-04-02T05:07:19.385Z,62.72
2018-04-02T05:09:47.634Z,68.82
2018-04-02T05:12:15.894Z,62.17
2018-04-02T05:14:44.910Z,63.35
2018-04-02T05:17:13.173Z,69.80
2018-04-02T05:19:42.195Z,67.72
2018-04-02T05:22:10.462Z,69.25
2018-04-02T05:24:38.713Z,74.78
2018-04-02T05:27:07.733Z,76.40
2018-04-02T05:29:35.982Z,66.80
2018-04-02T05:32:05.009Z,75.47
2018-04-02T05:34:33.260Z,74.55
2018-04-02T05:37:01.529Z,77.72
2018-04-02T05:39:30.536Z,51.15
2018-04-02T05:41:58.802Z,51.53
2018-04-02T05:44:27.070Z,46.85
2018-04-02T05:46:55.322Z,53.72
2018-04-02T05:49:23.582Z,42.47
2018-04-02T05:51:51.835Z,51.63
2018-04-02T05:54:20.086Z,49.30
2018-04-02T05:56:48.345Z,48.00
2018-04-02T05:59:17.368Z,49.95
2018-04-02T06:01:45.621Z,46.92
2018-04-02T06:04:13.875Z,45.15
2018-04-02T06:06:42.127Z,52.30
2018-04-02T06:09:10.385Z,45.73
2018-04-02T06:11:38.638Z,51.72
2018-04-02T06:14:06.902Z,53.83
2018-04-02T06:16:35.171Z,50.27
2018-04-02T06:19:03.419Z,45.72
2018-04-02T06:21:31.671Z,50.22
2018-04-02T06:23:59.930Z,48.70
2018-04-02T06:26:28.182Z,58.30
2018-04-02T06:28:57.202Z,46.90
2018-04-02T06:31:25.461Z,47.55
2018-04-02T06:33:53.725Z,47.62
2018-04-02T06:36:21.981Z,50.90
2018-04-02T06:38:51.009Z,46.20
2018-04-02T06:41:19.263Z,42.90
2018-04-02T06:43:48.277Z,44.88
2018-04-02T06:46:16.519Z,45.60
2018-04-02T06:48:44.773Z,41.93
2018-04-02T06:51:13.023Z,37.63
2018-04-02T06:53:41.273Z,33.90
2018-04-02T06:56:09.863Z,35.00
2018-04-02T06:58:38.106Z,39.93
2018-04-02T07:01:06.361Z,35.10
2018-04-02T07:03:34.614Z,32.37
2018-04-02T07:06:02.865Z,32.70
2018-04-02T07:08:31.115Z,35.40
2018-04-02T07:11:00.298Z,34.60
2018-04-02T07:13:28.505Z,30.03
2018-04-02T07:15:56.759Z,29.07
2018-04-02T07:18:25.772Z,26.80
2018-04-02T07:20:54.024Z,25.60
2018-04-02T07:23:23.034Z,22.97
2018-04-02T07:25:52.057Z,25.53
2018-04-02T07:28:20.305Z,25.17
2018-04-02T07:30:48.561Z,26.53
2018-04-02T07:33:17.578Z,22.50
2018-04-02T07:35:45.833Z,25.10
2018-04-02T07:38:14.841Z,23.07
2018-04-02T07:40:43.869Z,19.13
2018-04-02T07:43:12.117Z,25.30
2018-04-02T07:45:40.372Z,19.10
2018-04-02T07:48:09.390Z,16.67
2018-04-02T07:50:37.660Z,20.63
2018-04-02T07:53:06.665Z,18.97
2018-04-02T07:55:34.914Z,16.20
2018-04-02T07:58:03.926Z,16.93
2018-04-02T08:00:32.171Z,18.90
2018-04-02T08:03:00.491Z,15.83
2018-04-02T08:05:28.672Z,18.20
2018-04-02T08:07:56.923Z,19.33
2018-04-02T08:10:25.209Z,18.20
2018-04-02T08:12:53.458Z,14.47
2018-04-02T08:15:22.479Z,19.80
2018-04-02T08:17:50.735Z,16.60
2018-04-02T08:20:19.740Z,18.63
2018-04-02T08:22:47.990Z,12.50
2018-04-02T08:25:17.054Z,15.80
2018-04-02T08:27:46.014Z,12.53
2018-04-02T08:30:14.270Z,16.40
2018-04-02T08:32:42.573Z,14.30
2018-04-02T08:35:10.765Z,16.57
2018-04-02T08:37:39.032Z,15.13
2018-04-02T08:40:07.278Z,11.63
2018-04-02T08:42:35.513Z,12.20
2018-04-02T08:45:03.766Z,14.57
2018-04-02T08:47:32.010Z,12.30
2018-04-02T08:50:00.273Z,18.03
2018-04-02T08:52:28.534Z,12.53
2018-04-02T08:54:57.569Z,12.83
2018-04-02T08:57:25.809Z,13.10
2018-04-02T08:59:54.833Z,11.67
2018-04-02T09:02:23.077Z,10.20
2018-04-02T09:04:52.099Z,11.77
2018-04-02T09:07:20.334Z,9.27
2018-04-02T09:09:49.361Z,12.23
2018-04-02T09:12:17.598Z,9.03
2018-04-02T09:14:45.850Z,10.80
2018-04-02T09:17:14.093Z,9.70
2018-04-02T09:19:42.341Z,10.53
2018-04-02T09:22:11.346Z,11.10
2018-04-02T09:24:39.594Z,8.40
2018-04-02T09:27:07.833Z,6.40
2018-04-02T09:29:36.086Z,8.50
2018-04-02T09:32:04.366Z,9.00
2018-04-02T09:34:33.346Z,13.83
2018-04-02T09:37:01.593Z,10.00
2018-04-02T09:39:30.614Z,9.27
2018-04-02T09:41:58.856Z,9.00
2018-04-02T09:44:27.874Z,12.60
2018-04-02T09:46:56.127Z,12.70
2018-04-02T09:49:24.362Z,11.50
2018-04-02T09:51:52.607Z,9.97
2018-04-02T09:54:20.862Z,13.33
2018-04-02T09:56:49.873Z,10.20
2018-04-02T09:59:18.157Z,9.77
2018-04-02T10:01:46.372Z,10.77
2018-04-02T10:04:14.612Z,8.87
2018-04-02T10:06:42.852Z,9.40
2018-04-02T10:09:11.865Z,8.47
2018-04-02T10:11:40.117Z,11.67
2018-04-02T10:14:09.124Z,8.10
2018-04-02T10:16:37.381Z,13.70
2018-04-02T10:19:05.620Z,10.10
2018-04-02T10:21:33.875Z,9.43
2018-04-02T10:24:02.164Z,11.80
2018-04-02T10:26:31.135Z,11.10
2018-04-02T10:28:59.380Z,9.37
2018-04-02T10:31:28.422Z,9.10
2018-04-02T10:33:56.663Z,11.33
2018-04-02T10:36:25.674Z,10.20
2018-04-02T10:38:53.930Z,9.37
2018-04-02T10:41:22.947Z,10.50
2018-04-02T10:43:51.204Z,9.23
2018-04-02T10:46:19.452Z,9.93
2018-04-02T10:48:47.699Z,9.10
2018-04-02T10:51:15.940Z,8.80
2018-04-02T10:53:44.212Z,8.23
2018-04-02T10:56:12.461Z,9.43
2018-04-02T10:58:41.483Z,9.90
2018-04-02T11:01:09.729Z,10.27
2018-04-02T11:03:38.762Z,9.40
2018-04-02T11:06:07.018Z,11.40
2018-04-02T11:08:36.029Z,9.10
2018-04-02T11:11:04.282Z,9.13
2018-04-02T11:13:33.293Z,10.20
2018-04-02T11:16:01.533Z,8.17
2018-04-02T11:18:29.793Z,11.50
2018-04-02T11:20:58.034Z,9.13
2018-04-02T11:23:26.293Z,8.63
2018-04-02T11:25:54.536Z,9.00
2018-04-02T11:28:22.782Z,8.60
2018-04-02T11:30:51.032Z,8.27
2018-04-02T11:33:19.271Z,8.80
2018-04-02T11:35:48.296Z,9.37
2018-04-02T11:38:16.538Z,9.43
2018-04-02T11:40:45.553Z,9.43
2018-04-02T11:43:13.798Z,9.90
2018-04-02T11:45:42.049Z,8.43
2018-04-02T11:48:10.352Z,8.30
2018-04-02T11:50:38.537Z,7.50
2018-04-02T11:53:07.555Z,6.80
2018-04-02T11:55:35.809Z,7.47
2018-04-02T11:58:04.817Z,7.70
2018-04-02T12:00:33.070Z,7.63
2018-04-02T12:03:02.087Z,9.10
2018-04-02T12:05:30.350Z,8.70
2018-04-02T12:07:59.362Z,8.33
2018-04-02T12:10:27.605Z,8.40
2018-04-02T12:12:56.613Z,8.40
2018-04-02T12:15:25.634Z,9.47
2018-04-02T12:17:53.878Z,10.23
2018-04-02T12:20:22.900Z,9.27
2018-04-02T12:22:51.158Z,9.30
2018-04-02T12:25:19.404Z,8.43
2018-04-02T12:27:47.644Z,8.50
2018-04-02T12:30:15.900Z,9.07
2018-04-02T12:32:44.149Z,9.53
2018-04-02T12:35:13.162Z,8.73
2018-04-02T12:37:41.417Z,8.63
2018-04-02T12:40:10.438Z,8.57
2018-04-02T12:42:38.689Z,10.07
2018-04-02T12:45:07.701Z,9.43
2018-04-02T12:47:35.954Z,8.60
2018-04-02T12:50:04.958Z,8.30
2018-04-02T12:52:33.213Z,8.30
2018-04-02T12:55:02.226Z,8.00
2018-04-02T12:57:30.477Z,8.20
2018-04-02T12:59:59.491Z,8.27
2018-04-02T13:02:28.502Z,8.67
2018-04-02T13:04:56.745Z,9.63
2018-04-02T13:07:25.758Z,8.10
2018-04-02T13:09:54.004Z,7.20
2018-04-02T13:12:22.257Z,8.50
2018-04-02T13:14:50.505Z,8.97
2018-04-02T13:17:18.750Z,7.27
2018-04-02T13:19:47.759Z,7.50
2018-04-02T13:22:16.006Z,8.10
2018-04-02T13:24:45.059Z,5.67
2018-04-02T13:27:13.266Z,5.20
2018-04-02T13:29:41.515Z,5.40
2018-04-02T13:32:09.761Z,9.10
2018-04-02T13:34:38.010Z,7.90
2018-04-02T13:37:07.014Z,6.10
2018-04-02T13:39:35.275Z,4.83
2018-04-02T13:42:04.289Z,5.53
2018-04-02T13:44:32.545Z,4.83
2018-04-02T13:47:01.558Z,6.63
2018-04-02T13:49:29.814Z,5.83
2018-04-02T13:51:58.826Z,4.30
2018-04-02T13:54:27.071Z,4.97
2018-04-02T13:56:56.080Z,4.73
2018-04-02T13:59:25.101Z,5.60
2018-04-02T14:01:53.373Z,5.87
2018-04-02T14:04:21.616Z,5.67
2018-04-02T14:06:50.627Z,4.87
2018-04-02T14:09:18.881Z,5.10
2018-04-02T14:11:47.889Z,5.93
2018-04-02T14:14:16.142Z,5.40
2018-04-02T14:16:44.382Z,4.50
2018-04-02T14:19:12.626Z,5.10
2018-04-02T14:21:40.864Z,4.53
2018-04-02T14:24:09.121Z,4.97
2018-04-02T14:26:37.365Z,4.63
2018-04-02T14:29:05.609Z,4.00
2018-04-02T14:31:34.659Z,3.63
2018-04-02T14:34:02.861Z,5.73
2018-04-02T14:36:31.120Z,5.10
2018-04-02T14:38:59.414Z,3.93
2018-04-02T14:41:27.610Z,3.90
2018-04-02T14:43:55.857Z,3.90
2018-04-02T14:46:24.111Z,4.43
2018-04-02T14:48:52.345Z,4.63
2018-04-02T14:51:20.603Z,3.27
2018-04-02T14:53:49.617Z,3.67
2018-04-02T14:56:17.923Z,3.50
2018-04-02T14:58:46.109Z,3.60
2018-04-02T15:01:14.358Z,4.30
2018-04-02T15:03:42.606Z,3.90
2018-04-02T15:06:11.573Z,3.70
2018-04-02T15:08:39.817Z,4.53
2018-04-02T15:11:08.072Z,3.00
2018-04-02T15:13:36.310Z,3.20
2018-04-02T15:16:05.330Z,2.57
2018-04-02T15:18:34.390Z,4.30
2018-04-02T15:21:03.408Z,3.17
2018-04-02T15:23:31.649Z,5.03
2018-04-02T15:25:59.881Z,2.97
2018-04-02T15:28:28.132Z,2.10
2018-04-02T15:30:56.373Z,2.30
2018-04-02T15:33:24.624Z,2.20
2018-04-02T15:35:52.866Z,2.57
2018-04-02T15:38:21.116Z,5.20
2018-04-02T15:40:50.142Z,4.30
2018-04-02T15:43:18.391Z,3.27
2018-04-02T15:45:47.445Z,2.57
2018-04-02T15:48:15.702Z,2.97
2018-04-02T15:50:43.941Z,5.23
2018-04-02T15:53:12.197Z,5.00
2018-04-02T15:55:41.204Z,3.00
2018-04-02T15:58:10.227Z,4.53
2018-04-02T16:00:38.476Z,4.70
2018-04-02T16:03:07.550Z,3.10
2018-04-02T16:05:35.726Z,2.50
2018-04-02T16:08:03.989Z,2.27
2018-04-02T16:10:32.224Z,3.50
2018-04-02T16:13:00.477Z,4.90
2018-04-02T16:15:28.729Z,2.17
2018-04-02T16:17:57.734Z,4.80
2018-04-02T16:20:26.746Z,2.40
2018-04-02T16:22:54.985Z,6.07
2018-04-02T16:25:23.233Z,3.13
2018-04-02T16:27:51.485Z,3.63
2018-04-02T16:30:19.730Z,1.70
2018-04-02T16:32:48.773Z,1.73
2018-04-02T16:35:17.030Z,2.30
2018-04-02T16:37:45.274Z,2.27
2018-04-02T16:40:14.288Z,2.33
2018-04-02T16:42:42.533Z,2.50
2018-04-02T16:45:11.545Z,4.60
2018-04-02T16:47:39.789Z,1.63
2018-04-02T16:50:08.041Z,3.63
2018-04-02T16:52:36.277Z,1.80
2018-04-02T16:55:04.539Z,3.47
2018-04-02T16:57:33.545Z,3.47
2018-04-02T17:00:01.794Z,1.70
2018-04-02T17:02:30.810Z,2.73
2018-04-02T17:04:59.059Z,2.00
2018-04-02T17:07:27.297Z,3.23
2018-04-02T17:09:55.554Z,2.00
2018-04-02T17:12:23.785Z,6.77
2018-04-02T17:14:52.805Z,5.03
2018-04-02T17:17:21.054Z,3.80
2018-04-02T17:19:50.067Z,3.67
2018-04-02T17:22:18.318Z,3.77
2018-04-02T17:24:47.333Z,2.70
2018-04-02T17:27:15.593Z,4.83
2018-04-02T17:29:44.601Z,4.50
2018-04-02T17:32:12.859Z,3.80
2018-04-02T17:34:41.866Z,2.50
2018-04-02T17:37:10.876Z,2.50
2018-04-02T17:39:39.129Z,2.63
2018-04-02T17:42:08.154Z,3.93
2018-04-02T17:47:11.028Z,4.80
2018-04-02T17:49:40.046Z,4.03
2018-04-02T17:52:08.297Z,2.67
2018-04-02T17:54:37.309Z,5.60
2018-04-02T17:57:05.560Z,4.43
2018-04-02T17:59:33.817Z,6.30
2018-04-02T18:02:02.079Z,4.20
2018-04-02T18:04:30.322Z,2.30
2018-04-02T18:06:58.577Z,3.40
2018-04-02T18:09:26.824Z,3.30
2018-04-02T18:11:55.089Z,8.37
2018-04-02T18:14:23.339Z,5.10
2018-04-02T18:16:51.598Z,4.13
2018-04-02T18:19:19.841Z,4.77
2018-04-02T18:21:48.861Z,2.83
2018-04-02T18:24:17.113Z,4.57
2018-04-02T18:26:45.395Z,4.43
2018-04-02T18:29:13.643Z,4.40
2018-04-02T18:31:41.894Z,5.90
2018-04-02T18:34:10.141Z,3.23
2018-04-02T18:36:38.390Z,3.20
2018-04-02T18:39:07.406Z,2.80
2018-04-02T18:41:35.650Z,7.07
2018-04-02T18:44:04.674Z,5.37
2018-04-02T18:46:32.927Z,4.40
2018-04-02T18:49:01.953Z,5.60
2018-04-02T18:51:30.198Z,3.40
2018-04-02T18:53:58.454Z,6.73
2018-04-02T18:56:27.465Z,3.93
2018-04-02T18:58:55.717Z,3.87
2018-04-02T19:01:24.736Z,4.33
2018-04-02T19:03:53.013Z,6.87
2018-04-02T19:06:21.266Z,5.40
2018-04-02T19:08:49.513Z,3.40
2018-04-02T19:11:17.773Z,4.17
2018-04-02T19:13:46.016Z,3.57
2018-04-02T19:16:14.274Z,5.00
2018-04-02T19:18:43.297Z,4.60
2018-04-02T19:21:11.560Z,4.13
2018-04-02T19:23:39.806Z,3.60
2018-04-02T19:26:08.060Z,3.80
2018-04-02T19:28:36.313Z,3.63
2018-04-02T19:31:04.574Z,4.83
2018-04-02T19:33:32.815Z,4.43
2018-04-02T19:36:01.843Z,4.10
2018-04-02T19:38:30.107Z,4.40
2018-04-02T19:40:58.378Z,4.83
2018-04-02T19:43:27.385Z,5.10
2018-04-02T19:45:55.650Z,6.10
2018-04-02T19:48:24.656Z,5.97
2018-04-02T19:50:52.918Z,11.60
2018-04-02T19:53:21.165Z,8.20
2018-04-02T19:55:49.422Z,7.20
2018-04-02T19:58:17.669Z,6.50
2018-04-02T20:00:45.934Z,7.17
2018-04-02T20:03:14.190Z,6.10
2018-04-02T20:05:43.217Z,7.57
2018-04-02T20:08:11.468Z,8.80
2018-04-02T20:10:39.715Z,9.27
2018-04-02T20:13:07.970Z,8.20
2018-04-02T20:15:36.227Z,11.37
2018-04-02T20:18:04.486Z,12.10
2018-04-02T20:20:33.612Z,12.73
2018-04-02T20:23:01.896Z,18.40
2018-04-02T20:25:30.851Z,14.53
2018-04-02T20:27:59.117Z,21.67
2018-04-02T20:30:27.376Z,15.23
2018-04-02T20:32:56.407Z,15.50
2018-04-02T20:35:24.666Z,15.23
2018-04-02T20:37:52.929Z,15.10
2018-04-02T20:40:21.182Z,13.67
2018-04-02T20:42:50.210Z,12.47
2018-04-02T20:45:18.456Z,16.73
2018-04-02T20:47:47.481Z,16.47
2018-04-02T20:50:15.733Z,16.20
2018-04-02T20:52:44.766Z,19.23
2018-04-02T20:55:13.021Z,14.23
2018-04-02T20:57:41.278Z,16.67
2018-04-02T21:00:10.339Z,20.73
2018-04-02T21:02:38.562Z,17.13
2018-04-02T21:05:06.815Z,21.07
2018-04-02T21:07:35.840Z,22.67
2018-04-02T21:10:04.097Z,19.27
2018-04-02T21:12:32.358Z,21.40
2018-04-02T21:15:01.379Z,20.67
2018-04-02T21:17:29.638Z,24.90
2018-04-02T21:19:58.661Z,18.83
2018-04-02T21:22:26.922Z,23.30
2018-04-02T21:24:55.177Z,22.47
2018-04-02T21:27:24.198Z,21.77
2018-04-02T21:29:52.501Z,20.87
2018-04-02T21:32:20.721Z,19.43
2018-04-02T21:34:49.745Z,21.13
2018-04-02T21:37:18.004Z,22.97
2018-04-02T21:39:46.284Z,25.80
2018-04-02T21:42:14.545Z,28.30
2018-04-02T21:44:43.566Z,23.33
2018-04-02T21:47:11.825Z,17.40
2018-04-02T21:49:40.097Z,15.60
2018-04-02T21:52:09.113Z,14.60
2018-04-02T21:54:37.382Z,15.03
2018-04-02T21:57:05.630Z,21.03
2018-04-02T21:59:34.670Z,14.53
2018-04-02T22:02:02.929Z,15.90
2018-04-02T22:04:31.194Z,17.13
2018-04-02T22:07:06.309Z,21.23
2018-04-02T22:09:34.572Z,19.87
2018-04-02T22:12:02.843Z,18.40
2018-04-02T22:14:31.101Z,17.37
2018-04-02T22:16:59.353Z,15.93
2018-04-02T22:19:27.611Z,14.03
2018-04-02T22:21:56.626Z,15.50
2018-04-02T22:24:24.909Z,13.53
2018-04-02T22:26:53.154Z,14.27
2018-04-02T22:29:22.177Z,13.63
2018-04-02T22:31:50.437Z,14.40
2018-04-02T22:34:19.516Z,13.40
2018-04-02T22:36:48.546Z,11.37
2018-04-02T22:39:16.788Z,12.77
2018-04-02T22:41:45.816Z,14.03
2018-04-02T22:44:14.069Z,12.60
2018-04-02T22:46:43.189Z,14.80
2018-04-02T22:49:11.438Z,10.50
2018-04-02T22:51:40.470Z,14.60
2018-04-02T22:54:08.769Z,12.50
2018-04-02T22:56:37.027Z,11.47
2018-04-02T22:59:05.282Z,9.87
2018-04-02T23:01:34.297Z,8.37
2018-04-02T23:04:02.545Z,9.50
2018-04-02T23:06:31.566Z,6.30
2018-04-02T23:08:59.814Z,4.00
2018-04-02T23:11:28.838Z,5.73
2018-04-02T23:13:57.085Z,4.80
2018-04-02T23:16:26.094Z,4.70
2018-04-02T23:18:54.342Z,3.47
2018-04-02T23:21:23.350Z,2.13
2018-04-02T23:23:51.599Z,2.47
2018-04-02T23:26:19.846Z,1.93
2018-04-02T23:28:48.102Z,2.03
2018-04-02T23:31:16.349Z,3.87
2018-04-02T23:33:45.374Z,3.67
2018-04-02T23:36:13.622Z,1.53
2018-04-02T23:38:41.874Z,2.73
2018-04-02T23:41:10.116Z,5.20
2018-04-02T23:43:38.380Z,2.53
2018-04-02T23:46:06.626Z,1.97
2018-04-02T23:48:34.877Z,5.60
2018-04-02T23:51:03.913Z,2.53
2018-04-02T23:53:32.264Z,1.63
2018-04-02T23:56:00.614Z,2.20
2018-04-02T23:58:29.730Z,1.93
